createdAt,value
2023-02-18T00:01:16.374Z,10.20
2023-02-18T00:05:23.199Z,9.80
2023-02-18T00:09:29.888Z,10.50
2023-02-18T00:13:37.034Z,9.90
2023-02-18T00:17:43.678Z,9.90
2023-02-18T00:21:50.339Z,10.00
2023-02-18T00:26:09.764Z,10.00
2023-02-18T00:30:16.837Z,10.20
2023-02-18T00:34:23.576Z,10.20
2023-02-18T00:38:30.522Z,10.20
2023-02-18T00:42:37.220Z,10.30
2023-02-18T00:46:43.964Z,10.30
2023-02-18T00:50:50.833Z,10.30
2023-02-18T00:54:57.513Z,10.40
2023-02-18T00:59:04.478Z,10.50
2023-02-18T01:03:11.578Z,10.50
2023-02-18T01:07:18.301Z,10.50
2023-02-18T01:11:25.614Z,10.50
2023-02-18T01:15:32.408Z,10.50
2023-02-18T01:19:39.078Z,10.50
2023-02-18T01:23:45.845Z,10.50
2023-02-18T01:27:55.488Z,10.50
2023-02-18T01:32:02.289Z,10.40
2023-02-18T01:36:11.215Z,10.50
2023-02-18T01:40:22.353Z,10.40
2023-02-18T01:44:29.963Z,10.40
2023-02-18T01:48:42.371Z,10.40
2023-02-18T01:52:49.019Z,10.50
2023-02-18T01:57:18.531Z,10.50
2023-02-18T02:01:26.714Z,10.30
2023-02-18T02:05:34.458Z,10.30
2023-02-18T02:09:42.201Z,10.20
2023-02-18T02:14:05.109Z,10.20
2023-02-18T02:18:30.536Z,10.20
2023-02-18T02:22:46.335Z,10.10
2023-02-18T02:27:10.258Z,10.10
2023-02-18T02:31:46.948Z,10.20
2023-02-18T02:36:13.674Z,10.10
2023-02-18T02:40:45.092Z,10.10
2023-02-18T02:45:10.405Z,10.10
2023-02-18T02:49:31.463Z,10.00
2023-02-18T02:53:41.728Z,10.00
2023-02-18T02:57:54.614Z,10.10
2023-02-18T03:02:01.284Z,10.10
2023-02-18T03:06:31.864Z,10.00
2023-02-18T03:11:11.874Z,10.00
2023-02-18T03:15:41.685Z,9.70
2023-02-18T03:20:01.571Z,10.10
2023-02-18T03:24:16.968Z,10.10
2023-02-18T03:28:26.056Z,10.10
2023-02-18T03:32:34.443Z,10.10
2023-02-18T03:36:41.636Z,10.10
2023-02-18T03:40:48.725Z,10.20
2023-02-18T03:44:55.844Z,10.20
2023-02-18T03:49:03.076Z,10.30
2023-02-18T03:53:09.758Z,10.30
2023-02-18T03:57:16.520Z,10.30
2023-02-18T04:01:23.390Z,10.40
2023-02-18T04:05:30.212Z,10.40
2023-02-18T04:09:36.972Z,10.50
2023-02-18T04:13:43.879Z,10.50
2023-02-18T04:17:51.858Z,10.60
2023-02-18T04:21:58.545Z,11.50
2023-02-18T04:26:05.369Z,10.60
2023-02-18T04:30:13.058Z,10.60
2023-02-18T04:34:20.160Z,10.70
2023-02-18T04:38:28.757Z,10.70
2023-02-18T04:42:35.653Z,10.80
2023-02-18T04:46:42.880Z,10.80
2023-02-18T04:50:49.684Z,11.20
2023-02-18T04:54:56.620Z,10.80
2023-02-18T04:59:03.388Z,10.80
2023-02-18T05:03:10.354Z,10.90
2023-02-18T05:07:17.344Z,10.90
2023-02-18T05:11:24.250Z,10.90
2023-02-18T05:15:31.040Z,10.90
2023-02-18T05:19:38.157Z,11.00
2023-02-18T05:23:44.873Z,10.90
2023-02-18T05:27:51.594Z,10.90
2023-02-18T05:31:58.301Z,10.90
2023-02-18T05:36:05.304Z,10.80
2023-02-18T05:40:12.389Z,10.80
2023-02-18T05:44:30.946Z,10.90
2023-02-18T05:48:37.656Z,10.80
2023-02-18T05:52:44.348Z,10.80
2023-02-18T05:56:51.198Z,10.90
2023-02-18T06:00:57.987Z,10.80
2023-02-18T06:05:05.911Z,10.70
2023-02-18T06:09:12.778Z,10.70
2023-02-18T06:13:19.714Z,10.70
2023-02-18T06:17:26.481Z,10.70
2023-02-18T06:21:33.536Z,10.70
2023-02-18T06:25:40.605Z,10.60
2023-02-18T06:29:47.295Z,10.70
2023-02-18T06:33:54.123Z,10.70
2023-02-18T06:38:01.341Z,10.70
2023-02-18T06:42:09.433Z,10.70
2023-02-18T06:46:16.235Z,10.60
2023-02-18T06:50:23.083Z,10.60
2023-02-18T06:54:29.757Z,10.60
2023-02-18T06:58:36.489Z,10.60
2023-02-18T07:02:43.289Z,10.60
2023-02-18T07:06:52.941Z,10.60
2023-02-18T07:10:59.777Z,10.70
2023-02-18T07:15:07.145Z,11.30
2023-02-18T07:19:14.948Z,10.70
2023-02-18T07:23:21.813Z,10.70
2023-02-18T07:27:28.534Z,10.70
2023-02-18T07:31:38.683Z,10.70
2023-02-18T07:35:46.225Z,10.80
2023-02-18T07:39:52.974Z,10.80
2023-02-18T07:44:00.154Z,10.70
2023-02-18T07:48:08.379Z,10.70
2023-02-18T07:52:16.035Z,10.70
2023-02-18T07:56:23.841Z,10.90
2023-02-18T08:00:30.538Z,10.60
2023-02-18T08:04:37.243Z,10.60
2023-02-18T08:08:43.973Z,10.60
2023-02-18T08:12:51.845Z,10.50
2023-02-18T08:17:01.529Z,10.50
2023-02-18T08:21:08.399Z,10.50
2023-02-18T08:25:28.577Z,10.50
2023-02-18T08:29:35.866Z,10.40
2023-02-18T08:33:42.634Z,10.40
2023-02-18T08:37:52.607Z,10.50
2023-02-18T08:42:00.567Z,10.60
2023-02-18T08:46:07.422Z,10.50
2023-02-18T08:50:14.187Z,10.50
2023-02-18T08:54:21.364Z,10.40
2023-02-18T08:58:28.081Z,10.30
2023-02-18T09:02:34.820Z,10.30
2023-02-18T09:06:41.709Z,10.30
2023-02-18T09:10:48.592Z,10.40
2023-02-18T09:14:55.355Z,10.40
2023-02-18T09:19:02.346Z,10.40
2023-02-18T09:23:09.044Z,10.40
2023-02-18T09:27:15.770Z,10.30
2023-02-18T09:31:25.920Z,10.20
2023-02-18T09:35:32.860Z,10.20
2023-02-18T09:39:39.702Z,10.20
2023-02-18T09:43:49.567Z,10.20
2023-02-18T09:47:56.748Z,10.00
2023-02-18T09:52:12.751Z,10.00
2023-02-18T09:56:31.703Z,10.00
2023-02-18T10:00:47.398Z,10.10
2023-02-18T10:04:55.249Z,10.20
2023-02-18T10:09:25.006Z,10.30
2023-02-18T10:13:34.129Z,10.20
2023-02-18T10:17:40.946Z,10.30
2023-02-18T10:21:48.592Z,10.10
2023-02-18T10:25:56.743Z,10.20
2023-02-18T10:30:21.982Z,11.40
2023-02-18T10:34:42.004Z,10.50
2023-02-18T10:39:10.507Z,10.50
2023-02-18T10:43:32.057Z,10.40
2023-02-18T10:48:04.501Z,10.50
2023-02-18T10:52:17.342Z,10.50
2023-02-18T10:56:35.521Z,10.50
2023-02-18T11:00:42.336Z,10.50
2023-02-18T11:04:49.239Z,10.50
2023-02-18T11:08:57.614Z,10.70
2023-02-18T11:13:07.772Z,10.80
2023-02-18T11:17:27.777Z,10.90
2023-02-18T11:21:38.565Z,11.10
2023-02-18T11:26:06.969Z,11.40
2023-02-18T11:30:42.208Z,11.50
2023-02-18T11:34:50.452Z,11.70
2023-02-18T11:39:29.260Z,11.90
2023-02-18T11:43:36.884Z,12.20
2023-02-18T11:47:43.809Z,12.20
2023-02-18T11:51:52.541Z,12.00
2023-02-18T11:56:02.474Z,12.00
2023-02-18T12:00:38.941Z,12.00
2023-02-18T12:05:03.382Z,12.10
2023-02-18T12:09:28.703Z,11.90
2023-02-18T12:13:42.779Z,11.80
2023-02-18T12:18:01.402Z,11.50
2023-02-18T12:22:26.822Z,11.50
2023-02-18T12:27:03.647Z,11.50
2023-02-18T12:31:31.615Z,11.50
2023-02-18T12:35:51.424Z,11.50
2023-02-18T12:40:31.004Z,11.40
2023-02-18T12:44:45.605Z,11.40
2023-02-18T12:49:17.306Z,11.60
2023-02-18T12:53:52.363Z,11.50
2023-02-18T12:58:39.171Z,11.50
2023-02-18T13:02:59.139Z,11.60
2023-02-18T13:07:24.302Z,11.70
2023-02-18T13:11:57.224Z,11.80
2023-02-18T13:16:13.169Z,11.80
2023-02-18T13:20:34.988Z,11.90
2023-02-18T13:24:45.377Z,12.10
2023-02-18T13:29:13.276Z,12.00
2023-02-18T13:33:35.101Z,11.90
2023-02-18T13:38:19.497Z,11.90
2023-02-18T13:42:30.888Z,11.90
2023-02-18T13:46:56.529Z,12.00
2023-02-18T13:51:06.893Z,12.00
2023-02-18T13:55:27.418Z,11.90
2023-02-18T13:59:45.197Z,12.00
2023-02-18T14:03:56.089Z,12.00
2023-02-18T14:08:30.809Z,11.90
2023-02-18T14:12:39.334Z,11.90
2023-02-18T14:17:20.402Z,11.90
2023-02-18T14:21:41.857Z,11.90
2023-02-18T14:26:23.165Z,11.80
2023-02-18T14:30:42.382Z,11.80
2023-02-18T14:35:08.836Z,12.40
2023-02-18T14:39:39.931Z,12.00
2023-02-18T14:44:21.511Z,12.10
2023-02-18T14:48:58.295Z,12.00
2023-02-18T14:53:10.676Z,11.10
2023-02-18T14:57:21.805Z,12.80
2023-02-18T15:01:32.313Z,12.00
2023-02-18T15:05:41.328Z,12.50
2023-02-18T15:09:56.972Z,12.20
2023-02-18T15:14:10.946Z,12.00
2023-02-18T15:18:36.188Z,12.10
2023-02-18T15:22:43.570Z,12.00
2023-02-18T15:26:52.054Z,12.00
2023-02-18T15:31:00.612Z,12.00
2023-02-18T15:35:16.680Z,12.00
2023-02-18T15:39:24.606Z,12.00
2023-02-18T15:43:32.193Z,12.00
2023-02-18T15:47:44.993Z,12.00
2023-02-18T15:51:57.596Z,12.00
2023-02-18T15:56:10.528Z,12.00
2023-02-18T16:00:28.275Z,12.70
2023-02-18T16:04:40.292Z,11.90
2023-02-18T16:09:18.723Z,11.90
2023-02-18T16:13:26.918Z,11.80
2023-02-18T16:17:33.929Z,11.70
2023-02-18T16:21:45.201Z,11.80
2023-02-18T16:25:51.855Z,11.80
2023-02-18T16:30:02.903Z,11.80
2023-02-18T16:34:09.659Z,11.70
2023-02-18T16:38:22.170Z,11.60
2023-02-18T16:42:29.025Z,11.50
2023-02-18T16:46:37.009Z,11.30
2023-02-18T16:50:44.135Z,11.30
2023-02-18T16:54:53.323Z,11.30
2023-02-18T16:59:00.418Z,11.20
2023-02-18T17:03:07.308Z,11.10
2023-02-18T17:07:14.093Z,11.10
2023-02-18T17:11:28.076Z,11.10
2023-02-18T17:15:57.243Z,11.10
2023-02-18T17:20:04.015Z,10.90
2023-02-18T17:24:13.397Z,12.80
2023-02-18T17:28:20.406Z,11.10
2023-02-18T17:32:27.304Z,11.20
2023-02-18T17:36:34.104Z,11.20
2023-02-18T17:40:40.802Z,11.10
2023-02-18T17:44:47.484Z,11.00
2023-02-18T17:48:54.416Z,11.10
2023-02-18T17:53:01.117Z,11.40
2023-02-18T17:57:08.440Z,11.10
2023-02-18T18:01:16.463Z,11.00
2023-02-18T18:05:35.015Z,11.00
2023-02-18T18:09:41.706Z,11.00
2023-02-18T18:13:48.917Z,10.90
2023-02-18T18:17:57.236Z,10.90
2023-02-18T18:22:05.325Z,10.90
2023-02-18T18:26:12.049Z,11.80
2023-02-18T18:30:23.655Z,11.00
2023-02-18T18:34:31.822Z,11.10
2023-02-18T18:38:38.534Z,11.00
2023-02-18T18:42:45.668Z,11.00
2023-02-18T18:46:52.397Z,11.00
2023-02-18T18:51:01.494Z,11.00
2023-02-18T18:55:33.863Z,11.00
2023-02-18T18:59:40.992Z,11.10
2023-02-18T19:03:48.654Z,11.00
2023-02-18T19:07:56.052Z,10.90
2023-02-18T19:12:02.822Z,10.90
2023-02-18T19:16:23.468Z,10.80
2023-02-18T19:20:35.557Z,10.80
2023-02-18T19:24:42.905Z,10.70
2023-02-18T19:28:49.638Z,10.70
2023-02-18T19:32:58.051Z,10.70
2023-02-18T19:37:04.844Z,10.60
2023-02-18T19:41:19.055Z,10.60
2023-02-18T19:45:25.993Z,10.50
2023-02-18T19:49:32.687Z,10.50
2023-02-18T19:53:40.076Z,10.50
2023-02-18T19:57:46.905Z,10.50
2023-02-18T20:01:53.681Z,10.50
2023-02-18T20:06:00.483Z,10.60
2023-02-18T20:10:08.976Z,10.60
2023-02-18T20:14:19.658Z,10.60
2023-02-18T20:18:28.736Z,11.20
2023-02-18T20:22:36.035Z,10.70
2023-02-18T20:26:42.969Z,10.70
2023-02-18T20:30:49.782Z,11.40
2023-02-18T20:34:56.922Z,10.70
2023-02-18T20:39:15.567Z,10.70
2023-02-18T20:43:24.307Z,10.70
2023-02-18T20:47:31.087Z,10.70
2023-02-18T20:51:37.888Z,10.70
2023-02-18T20:55:48.322Z,10.70
2023-02-18T20:59:55.410Z,10.70
2023-02-18T21:04:02.164Z,10.70
2023-02-18T21:08:09.323Z,10.70
2023-02-18T21:12:16.035Z,10.70
2023-02-18T21:16:26.921Z,10.60
2023-02-18T21:20:33.670Z,10.60
2023-02-18T21:24:40.482Z,10.60
2023-02-18T21:28:53.738Z,10.50
2023-02-18T21:33:00.436Z,10.50
2023-02-18T21:37:07.330Z,10.40
2023-02-18T21:41:14.070Z,10.40
2023-02-18T21:45:21.576Z,11.60
2023-02-18T21:49:28.315Z,10.40
2023-02-18T21:53:35.045Z,10.40
2023-02-18T21:57:41.770Z,10.40
2023-02-18T22:01:49.105Z,10.50
2023-02-18T22:05:55.936Z,10.50
2023-02-18T22:10:02.644Z,10.50
2023-02-18T22:14:11.361Z,10.50
2023-02-18T22:18:20.865Z,10.50
2023-02-18T22:22:27.621Z,10.50
2023-02-18T22:26:34.599Z,10.50
2023-02-18T22:30:41.281Z,10.50
2023-02-18T22:34:47.933Z,10.50
2023-02-18T22:38:54.931Z,10.50
2023-02-18T22:43:01.685Z,10.50
2023-02-18T22:47:08.677Z,10.60
2023-02-18T22:51:23.127Z,10.60
2023-02-18T22:55:29.945Z,10.60
2023-02-18T22:59:36.647Z,10.60
2023-02-18T23:03:43.363Z,10.50
2023-02-18T23:07:50.103Z,10.50
2023-02-18T23:11:58.327Z,10.50
2023-02-18T23:16:13.095Z,10.30
2023-02-18T23:20:39.849Z,10.40
2023-02-18T23:24:47.447Z,10.40
2023-02-18T23:28:54.231Z,10.30
2023-02-18T23:33:01.058Z,10.30
2023-02-18T23:37:07.867Z,10.30
2023-02-18T23:41:14.553Z,10.30
2023-02-18T23:45:21.714Z,10.30
2023-02-18T23:49:28.978Z,10.30
2023-02-18T23:53:36.540Z,10.30
2023-02-18T23:57:43.204Z,10.40
